Time;durP1;ratioP1;P1;durP2;ratioP2;P2;SDS_P1;SDS_P2;PMS_P1;PMS_P2;Temp;Humidity;BMP_temperature;BMP_pressure;BME280_temperature;BME280_humidity;BME280_pressure;Samples;Min_cycle;Max_cycle;Signal;HPM_P1;HPM_P2
2023/02/27 00:00:30;;;;;;;3.60;1.37;;;2.70;99.90;;;;;;5114133;27;20590;-75
2023/02/27 00:02:57;;;;;;;8.30;1.60;;;2.60;99.90;;;;;;5134645;27;20161;-76
2023/02/27 00:05:22;;;;;;;4.43;1.53;;;2.60;99.90;;;;;;5116023;27;20161;-76
2023/02/27 00:07:48;;;;;;;6.77;1.80;;;2.50;99.90;;;;;;5134079;27;20167;-76
2023/02/27 00:10:15;;;;;;;5.13;1.47;;;2.50;99.90;;;;;;5134107;27;20287;-77
2023/02/27 00:12:42;;;;;;;6.57;1.70;;;2.40;99.90;;;;;;5134365;27;20630;-76
2023/02/27 00:15:16;;;;;;;5.60;1.40;;;2.40;99.90;;;;;;5133690;27;20176;-76
2023/02/27 00:17:43;;;;;;;5.20;1.90;;;2.50;99.90;;;;;;5114796;27;20177;-75
2023/02/27 00:20:11;;;;;;;5.23;1.43;;;2.50;99.90;;;;;;5113432;27;20174;-75
2023/02/27 00:22:38;;;;;;;4.63;1.30;;;2.50;99.90;;;;;;5113132;28;20627;-76
2023/02/27 00:25:06;;;;;;;2.17;1.37;;;2.40;99.90;;;;;;5133193;27;20260;-76
2023/02/27 00:27:33;;;;;;;8.20;1.30;;;2.40;99.90;;;;;;5133381;27;20161;-76
2023/02/27 00:29:59;;;;;;;5.30;1.50;;;2.50;99.90;;;;;;5133465;28;20161;-76
2023/02/27 00:32:25;;;;;;;5.90;1.63;;;2.40;99.90;;;;;;5134221;28;20613;-76
2023/02/27 00:34:51;;;;;;;6.93;1.60;;;2.30;99.90;;;;;;5113640;28;20186;-76
2023/02/27 00:37:16;;;;;;;8.17;1.40;;;2.40;99.90;;;;;;5116483;28;20176;-75
2023/02/27 00:39:42;;;;;;;6.63;1.43;;;2.40;99.90;;;;;;5113414;28;20199;-76
2023/02/27 00:42:07;;;;;;;1.97;1.33;;;2.30;99.90;;;;;;5114252;28;20249;-75
2023/02/27 00:44:33;;;;;;;6.00;1.60;;;2.30;99.90;;;;;;5099127;28;20553;-75
2023/02/27 00:46:59;;;;;;;7.00;1.60;;;2.30;99.90;;;;;;5117452;28;20256;-77
2023/02/27 00:49:25;;;;;;;4.23;1.37;;;2.30;99.90;;;;;;5117756;28;20172;-75
2023/02/27 00:51:51;;;;;;;6.07;1.50;;;2.20;99.90;;;;;;5117227;28;20170;-76
2023/02/27 00:54:16;;;;;;;5.63;1.70;;;2.20;99.90;;;;;;5117465;28;20186;-76
2023/02/27 00:56:42;;;;;;;9.73;2.37;;;2.10;99.90;;;;;;5117443;28;20564;-74
2023/02/27 00:59:07;;;;;;;5.63;1.70;;;2.30;99.90;;;;;;5117394;27;20185;-75
2023/02/27 01:01:33;;;;;;;6.57;1.37;;;2.30;99.90;;;;;;5117788;27;20759;-75
2023/02/27 01:03:59;;;;;;;4.47;1.07;;;2.30;99.90;;;;;;5117188;28;20682;-76
2023/02/27 01:06:26;;;;;;;6.43;1.60;;;2.30;99.90;;;;;;5116981;28;20637;-75
2023/02/27 01:08:54;;;;;;;4.47;1.47;;;2.10;99.90;;;;;;5098894;28;20158;-75
2023/02/27 01:11:20;;;;;;;5.37;1.53;;;2.20;99.90;;;;;;5117242;28;20256;-75
2023/02/27 01:13:46;;;;;;;3.97;1.40;;;2.20;99.90;;;;;;5098706;28;20252;-75
2023/02/27 01:16:12;;;;;;;7.97;1.50;;;2.00;99.90;;;;;;5117255;28;20487;-75
2023/02/27 01:18:38;;;;;;;4.07;1.20;;;2.00;99.90;;;;;;5098516;28;20165;-76
2023/02/27 01:21:05;;;;;;;6.00;1.60;;;2.10;99.90;;;;;;5134181;27;20207;-76
2023/02/27 01:23:31;;;;;;;8.03;1.93;;;2.00;99.90;;;;;;5118798;27;20165;-77
2023/02/27 01:25:56;;;;;;;8.90;1.60;;;2.00;99.90;;;;;;5137570;27;20295;-76
2023/02/27 01:28:22;;;;;;;3.07;1.30;;;2.10;99.90;;;;;;5118847;27;20188;-75
2023/02/27 01:30:48;;;;;;;8.37;1.80;;;2.10;99.90;;;;;;5118761;27;20265;-76
2023/02/27 01:33:13;;;;;;;4.13;1.33;;;1.90;99.90;;;;;;5118826;27;20559;-77
2023/02/27 01:35:39;;;;;;;6.30;1.70;;;1.90;99.90;;;;;;5137372;27;20181;-75
2023/02/27 01:38:05;;;;;;;6.17;1.77;;;1.80;99.90;;;;;;5136840;27;20148;-75
2023/02/27 01:40:35;;;;;;;5.20;1.73;;;1.80;99.90;;;;;;5137393;27;20183;-76
2023/02/27 01:43:01;;;;;;;7.13;1.73;;;1.80;99.90;;;;;;5118625;27;20218;-80
2023/02/27 01:45:28;;;;;;;7.87;1.53;;;1.80;99.90;;;;;;5117821;27;20165;-77
2023/02/27 01:48:15;;;;;;;6.10;2.00;;;1.90;99.90;;;;;;5137004;27;20157;-77
2023/02/27 01:50:58;;;;;;;3.83;1.60;;;1.80;99.90;;;;;;5137004;27;20161;-77
2023/02/27 01:53:25;;;;;;;4.87;1.77;;;1.80;99.90;;;;;;5136143;27;20173;-78
2023/02/27 01:55:59;;;;;;;6.40;1.27;;;1.70;99.90;;;;;;5118376;27;20246;-75
2023/02/27 01:58:25;;;;;;;2.80;1.33;;;1.60;99.90;;;;;;5124958;27;20588;-74
2023/02/27 02:00:51;;;;;;;5.70;1.53;;;1.70;99.90;;;;;;5116426;28;20184;-75
2023/02/27 02:03:26;;;;;;;6.77;1.27;;;1.50;99.90;;;;;;5115840;28;20528;-74
2023/02/27 02:05:55;;;;;;;4.00;1.33;;;1.60;99.90;;;;;;5097909;28;20208;-74
2023/02/27 02:08:25;;;;;;;5.37;1.70;;;1.60;99.90;;;;;;5115913;28;20630;-76
2023/02/27 02:10:53;;;;;;;5.33;1.43;;;1.60;99.90;;;;;;5116825;27;20173;-75
2023/02/27 02:13:20;;;;;;;4.17;1.43;;;1.60;99.90;;;;;;5097461;28;20264;-75
2023/02/27 02:16:13;;;;;;;3.17;1.47;;;1.60;99.90;;;;;;5097887;28;20193;-75
2023/02/27 02:19:05;;;;;;;5.70;2.27;;;1.70;99.90;;;;;;5053372;28;20197;-75
2023/02/27 02:21:46;;;;;;;6.60;1.80;;;1.60;99.90;;;;;;5115830;28;20178;-77
2023/02/27 02:24:35;;;;;;;6.27;1.83;;;1.50;99.90;;;;;;5115912;28;20205;-75
2023/02/27 02:27:20;;;;;;;6.77;2.17;;;1.40;99.90;;;;;;5097027;28;20276;-75
2023/02/27 02:30:18;;;;;;;5.03;1.37;;;1.30;99.90;;;;;;5115282;28;20174;-74
2023/02/27 02:33:06;;;;;;;6.27;1.50;;;1.50;99.90;;;;;;5096974;28;20223;-75
2023/02/27 02:35:40;;;;;;;6.27;1.60;;;1.50;99.90;;;;;;5115359;28;20217;-75
2023/02/27 02:38:25;;;;;;;8.60;2.00;;;1.40;99.90;;;;;;5115490;28;20170;-75
2023/02/27 02:41:17;;;;;;;7.70;2.07;;;1.40;99.90;;;;;;5115407;27;20223;-75
2023/02/27 02:44:04;;;;;;;8.63;2.17;;;1.30;99.90;;;;;;5115426;28;20633;-74
2023/02/27 02:46:35;;;;;;;10.70;2.23;;;1.20;99.90;;;;;;5114982;28;20551;-74
2023/02/27 02:49:21;;;;;;;4.80;2.00;;;1.10;99.90;;;;;;5115300;28;20173;-75
2023/02/27 02:51:59;;;;;;;6.17;1.63;;;1.10;99.90;;;;;;5096903;28;20170;-75
2023/02/27 02:54:41;;;;;;;9.70;1.73;;;1.10;99.90;;;;;;5115903;27;20684;-75
2023/02/27 02:57:18;;;;;;;4.57;1.70;;;1.30;99.90;;;;;;5096686;28;20161;-76
2023/02/27 02:59:55;;;;;;;4.83;1.60;;;1.30;99.90;;;;;;5112303;27;20177;-75
2023/02/27 03:02:26;;;;;;;6.60;1.83;;;1.20;99.90;;;;;;5116654;27;20176;-75
2023/02/27 03:05:22;;;;;;;5.23;2.10;;;1.30;99.90;;;;;;5135031;27;20165;-75
2023/02/27 03:08:13;;;;;;;7.13;1.67;;;1.30;99.90;;;;;;5115416;27;20189;-75
2023/02/27 03:10:44;;;;;;;5.23;2.10;;;1.20;99.90;;;;;;5116506;27;20180;-74
2023/02/27 03:13:17;;;;;;;6.67;1.70;;;1.20;99.90;;;;;;5135298;27;20157;-75
2023/02/27 03:16:09;;;;;;;4.73;1.80;;;1.20;99.90;;;;;;5135709;27;20221;-75
2023/02/27 03:18:46;;;;;;;5.23;1.90;;;1.20;99.90;;;;;;5116626;27;20173;-76
2023/02/27 03:21:23;;;;;;;4.47;1.83;;;1.20;99.90;;;;;;5116670;27;20621;-75
2023/02/27 03:23:51;;;;;;;5.17;2.07;;;1.00;99.90;;;;;;5116477;27;20621;-76
2023/02/27 03:26:22;;;;;;;7.47;2.20;;;1.10;99.90;;;;;;5116547;27;20159;-76
2023/02/27 03:28:58;;;;;;;6.57;1.70;;;1.00;99.90;;;;;;5114648;27;20189;-76
2023/02/27 03:31:35;;;;;;;7.33;1.93;;;0.90;99.90;;;;;;5095892;28;20536;-76
2023/02/27 03:34:24;;;;;;;4.70;1.37;;;1.00;99.90;;;;;;5095824;28;20197;-75
2023/02/27 03:37:02;;;;;;;2.00;1.43;;;1.10;99.90;;;;;;5096032;28;20188;-75
2023/02/27 03:39:54;;;;;;;7.57;1.70;;;1.10;99.90;;;;;;5095746;28;20680;-75
2023/02/27 03:42:35;;;;;;;6.40;1.50;;;1.10;99.90;;;;;;5113702;28;20150;-75
2023/02/27 03:45:17;;;;;;;5.13;1.40;;;1.00;99.90;;;;;;5113884;28;20248;-75
2023/02/27 03:47:44;;;;;;;4.77;1.20;;;1.00;99.90;;;;;;5096078;28;20243;-76
2023/02/27 03:50:11;;;;;;;7.33;1.70;;;1.10;99.90;;;;;;5113321;28;20169;-76
2023/02/27 03:52:37;;;;;;;4.37;1.40;;;1.00;99.90;;;;;;5113763;28;20166;-75
2023/02/27 03:55:10;;;;;;;5.60;1.90;;;0.90;99.90;;;;;;5119391;27;20204;-76
2023/02/27 03:57:37;;;;;;;5.47;1.73;;;0.80;99.90;;;;;;5116012;27;20165;-75
2023/02/27 04:00:04;;;;;;;3.07;1.43;;;0.90;99.90;;;;;;5115421;27;20541;-73
2023/02/27 04:02:31;;;;;;;5.80;1.70;;;1.00;99.90;;;;;;5134384;27;20539;-74
2023/02/27 04:04:57;;;;;;;2.90;1.43;;;1.10;99.90;;;;;;5096380;28;20177;-74
2023/02/27 04:07:38;;;;;;;5.27;1.40;;;1.00;99.90;;;;;;5113537;28;20166;-75
2023/02/27 04:10:29;;;;;;;4.97;1.77;;;0.90;99.90;;;;;;5095684;28;20166;-75
2023/02/27 04:13:26;;;;;;;2.83;1.80;;;1.10;99.90;;;;;;5095359;28;20218;-75
2023/02/27 04:16:27;;;;;;;9.57;2.20;;;1.00;99.90;;;;;;5095537;28;20606;-75
2023/02/27 04:19:17;;;;;;;5.80;1.40;;;0.90;99.90;;;;;;5095783;28;20606;-75
2023/02/27 04:22:03;;;;;;;6.80;2.13;;;1.00;99.90;;;;;;5095467;28;20691;-75
2023/02/27 04:24:48;;;;;;;8.50;2.40;;;0.90;99.90;;;;;;5112129;27;20169;-75
2023/02/27 04:27:20;;;;;;;8.53;1.90;;;0.90;99.90;;;;;;5134450;27;20240;-75
2023/02/27 04:30:18;;;;;;;5.30;2.17;;;0.80;99.90;;;;;;5115671;27;20610;-75
2023/02/27 04:32:53;;;;;;;4.13;1.73;;;0.70;99.90;;;;;;5122674;27;20592;-75
2023/02/27 04:35:36;;;;;;;3.10;2.03;;;0.70;99.90;;;;;;5115209;28;20287;-76
2023/02/27 04:38:11;;;;;;;3.50;1.80;;;0.70;99.90;;;;;;5115845;28;20153;-75
2023/02/27 04:41:00;;;;;;;4.93;2.10;;;0.80;99.90;;;;;;5115427;28;20164;-76
2023/02/27 04:43:28;;;;;;;4.40;1.47;;;0.80;99.90;;;;;;5122748;28;20650;-75
2023/02/27 04:45:57;;;;;;;5.50;2.03;;;0.80;99.90;;;;;;5094747;28;20178;-75
2023/02/27 04:48:34;;;;;;;3.73;1.60;;;0.70;99.90;;;;;;5113273;28;20150;-76
2023/02/27 04:51:15;;;;;;;5.17;1.93;;;0.60;99.90;;;;;;5113524;28;20218;-76
2023/02/27 04:53:58;;;;;;;3.73;1.73;;;0.60;99.90;;;;;;5113148;28;20158;-75
2023/02/27 04:56:30;;;;;;;4.50;1.93;;;0.60;99.90;;;;;;5094916;28;20172;-75
2023/02/27 04:59:02;;;;;;;7.30;2.10;;;0.60;99.90;;;;;;5095039;28;20610;-75
2023/02/27 05:01:38;;;;;;;5.00;1.70;;;0.50;99.90;;;;;;5113393;28;20178;-75
2023/02/27 05:04:06;;;;;;;5.70;1.63;;;0.60;99.90;;;;;;5121476;28;20566;-75
2023/02/27 05:06:36;;;;;;;4.47;2.30;;;0.80;99.90;;;;;;5115321;28;20167;-74
2023/02/27 05:09:25;;;;;;;5.77;2.13;;;0.70;99.90;;;;;;5115617;28;20196;-75
2023/02/27 05:12:15;;;;;;;4.63;2.50;;;0.70;99.90;;;;;;5133486;28;20166;-75
2023/02/27 05:15:07;;;;;;;5.87;2.30;;;0.80;99.90;;;;;;5115342;28;20210;-75
2023/02/27 05:17:55;;;;;;;6.93;2.13;;;0.90;99.90;;;;;;5134205;28;20146;-75
2023/02/27 05:20:23;;;;;;;6.77;1.93;;;0.80;99.90;;;;;;5133946;28;20653;-75
2023/02/27 05:23:15;;;;;;;6.00;2.30;;;0.80;99.90;;;;;;5133658;28;20179;-74
2023/02/27 05:25:45;;;;;;;5.83;2.03;;;0.70;99.90;;;;;;5114926;28;20649;-75
2023/02/27 05:28:26;;;;;;;2.30;1.53;;;0.60;99.90;;;;;;5115275;27;20164;-75
2023/02/27 05:31:00;;;;;;;7.93;2.20;;;0.60;99.90;;;;;;5098650;28;20611;-75
2023/02/27 05:33:39;;;;;;;7.87;2.30;;;0.50;99.90;;;;;;5118347;27;20248;-75
2023/02/27 05:36:18;;;;;;;4.73;2.07;;;0.50;99.90;;;;;;5116546;28;20261;-75
2023/02/27 05:38:54;;;;;;;5.57;2.43;;;0.50;99.90;;;;;;5098188;28;20165;-75
2023/02/27 05:41:30;;;;;;;4.57;2.20;;;0.60;99.90;;;;;;5116189;28;20248;-75
2023/02/27 05:44:09;;;;;;;6.97;2.20;;;0.70;99.90;;;;;;5102067;27;20246;-75
2023/02/27 05:46:41;;;;;;;3.80;1.90;;;0.70;99.90;;;;;;5116012;27;20171;-75
2023/02/27 05:49:37;;;;;;;3.90;2.10;;;0.50;99.90;;;;;;5102236;28;20179;-75
2023/02/27 05:52:08;;;;;;;5.07;2.00;;;0.50;99.90;;;;;;5115010;27;20191;-75
2023/02/27 05:54:51;;;;;;;8.40;2.73;;;0.50;99.90;;;;;;5124133;27;20188;-75
2023/02/27 05:57:29;;;;;;;9.47;2.20;;;0.50;99.90;;;;;;5098418;28;20154;-76
2023/02/27 06:00:16;;;;;;;6.10;2.20;;;0.50;99.90;;;;;;5124159;27;20160;-75
2023/02/27 06:02:43;;;;;;;4.60;2.17;;;0.50;99.90;;;;;;5108803;27;20177;-75
2023/02/27 06:05:12;;;;;;;8.47;1.97;;;0.40;99.90;;;;;;5109184;27;20637;-75
2023/02/27 06:07:41;;;;;;;6.40;2.50;;;0.50;99.90;;;;;;5105655;27;20532;-75
2023/02/27 06:10:10;;;;;;;9.43;2.37;;;0.40;99.90;;;;;;5121355;27;20180;-75
2023/02/27 06:12:39;;;;;;;16.63;3.10;;;0.40;99.90;;;;;;5124067;27;20179;-75
2023/02/27 06:15:06;;;;;;;27.33;4.13;;;0.30;99.90;;;;;;5128479;27;20193;-75
2023/02/27 06:17:33;;;;;;;8.50;2.30;;;0.30;99.90;;;;;;5126738;27;20240;-75
2023/02/27 06:19:59;;;;;;;9.77;2.30;;;0.20;99.90;;;;;;5137676;27;20530;-75
2023/02/27 06:22:24;;;;;;;10.03;2.73;;;0.20;99.90;;;;;;5137398;27;20161;-75
2023/02/27 06:24:51;;;;;;;6.50;2.50;;;0.20;99.90;;;;;;5130795;27;20180;-74
2023/02/27 06:27:17;;;;;;;7.30;2.73;;;0.30;99.90;;;;;;5133545;27;20177;-75
2023/02/27 06:29:46;;;;;;;3.40;2.13;;;0.30;99.90;;;;;;5117523;27;20149;-74
2023/02/27 06:32:16;;;;;;;5.20;2.57;;;0.40;99.90;;;;;;5110991;27;20177;-75
2023/02/27 06:34:42;;;;;;;5.00;2.40;;;0.50;99.90;;;;;;5116809;27;20183;-76
2023/02/27 06:37:11;;;;;;;7.50;2.47;;;0.30;99.90;;;;;;5136156;27;20643;-75
2023/02/27 06:39:38;;;;;;;7.93;2.80;;;0.20;99.90;;;;;;5115232;27;20179;-76
2023/02/27 06:42:04;;;;;;;5.57;2.73;;;0.20;99.90;;;;;;5116657;27;20292;-75
2023/02/27 06:44:29;;;;;;;6.80;2.53;;;0.30;99.90;;;;;;5135413;27;20256;-76
2023/02/27 06:46:57;;;;;;;8.43;2.93;;;0.40;99.90;;;;;;5134977;27;20180;-73
2023/02/27 06:49:23;;;;;;;10.60;2.70;;;0.40;99.90;;;;;;5133695;27;20649;-72
2023/02/27 06:51:48;;;;;;;13.30;2.70;;;0.40;99.90;;;;;;5133562;27;20173;-71
2023/02/27 06:54:15;;;;;;;8.40;3.00;;;0.40;99.90;;;;;;5112046;27;20200;-71
2023/02/27 06:56:41;;;;;;;6.83;2.63;;;0.40;99.90;;;;;;5112943;27;20214;-71
2023/02/27 06:59:07;;;;;;;12.10;4.83;;;0.30;99.90;;;;;;5132493;27;20255;-71
2023/02/27 07:01:35;;;;;;;7.43;2.77;;;0.30;99.90;;;;;;5133986;27;20275;-71
2023/02/27 07:04:01;;;;;;;7.27;2.60;;;0.40;99.90;;;;;;5132756;27;20161;-72
2023/02/27 07:06:26;;;;;;;6.33;2.57;;;0.40;99.90;;;;;;5133126;27;20548;-72
2023/02/27 07:08:54;;;;;;;5.43;2.80;;;0.50;99.90;;;;;;5109172;27;20178;-74
2023/02/27 07:11:22;;;;;;;4.67;2.53;;;0.50;99.90;;;;;;5113085;27;20167;-73
2023/02/27 07:13:48;;;;;;;7.67;3.30;;;0.60;99.90;;;;;;5109654;27;20172;-71
2023/02/27 07:16:16;;;;;;;6.67;3.63;;;0.60;99.90;;;;;;5134408;27;20191;-72
2023/02/27 07:18:42;;;;;;;8.17;3.70;;;0.60;99.90;;;;;;5135875;27;20149;-74
2023/02/27 07:21:08;;;;;;;6.43;2.87;;;0.60;99.90;;;;;;5128846;27;20535;-73
2023/02/27 07:23:34;;;;;;;9.80;3.70;;;0.60;99.90;;;;;;5135124;27;20149;-74
2023/02/27 07:26:01;;;;;;;10.50;3.27;;;0.70;99.90;;;;;;5129329;27;20170;-73
2023/02/27 07:28:30;;;;;;;10.37;3.37;;;0.60;99.90;;;;;;5095618;28;20173;-73
2023/02/27 07:30:56;;;;;;;12.60;3.30;;;0.80;99.90;;;;;;5114317;28;20178;-74
2023/02/27 07:33:22;;;;;;;7.87;3.00;;;0.90;99.90;;;;;;5128571;27;20176;-73
2023/02/27 07:35:48;;;;;;;8.27;3.30;;;0.80;99.90;;;;;;5128938;27;20208;-72
2023/02/27 07:38:14;;;;;;;9.33;3.77;;;0.70;99.90;;;;;;5129023;27;20634;-72
2023/02/27 07:40:40;;;;;;;10.03;3.50;;;0.80;99.90;;;;;;5122652;27;20168;-73
2023/02/27 07:43:06;;;;;;;7.40;3.13;;;0.90;99.90;;;;;;5114366;28;20250;-73
2023/02/27 07:45:32;;;;;;;14.67;3.60;;;1.00;99.90;;;;;;5103690;27;20219;-72
2023/02/27 07:47:59;;;;;;;6.87;3.27;;;0.90;99.90;;;;;;5134808;27;20172;-73
2023/02/27 07:50:24;;;;;;;7.97;3.07;;;1.00;99.90;;;;;;5134571;27;20196;-72
2023/02/27 07:52:51;;;;;;;8.43;3.40;;;1.00;99.90;;;;;;5133928;27;20276;-73
2023/02/27 07:55:17;;;;;;;6.97;3.00;;;1.10;99.90;;;;;;5116024;27;20220;-72
2023/02/27 07:57:46;;;;;;;9.63;4.47;;;1.10;99.90;;;;;;5134927;27;20165;-72
2023/02/27 08:00:12;;;;;;;9.80;3.33;;;1.20;99.90;;;;;;5134780;27;20177;-72
2023/02/27 08:02:39;;;;;;;10.07;4.23;;;1.30;99.90;;;;;;5134707;27;20647;-72
2023/02/27 08:05:05;;;;;;;6.53;3.63;;;1.30;99.90;;;;;;5134988;27;20260;-73
2023/02/27 08:07:31;;;;;;;11.63;3.90;;;1.40;99.90;;;;;;5131562;27;20196;-73
2023/02/27 08:09:57;;;;;;;9.63;3.60;;;1.40;99.90;;;;;;5114647;28;20663;-71
2023/02/27 08:12:23;;;;;;;10.93;3.77;;;1.40;99.90;;;;;;5123607;27;20173;-74
2023/02/27 08:14:48;;;;;;;13.33;3.73;;;1.50;99.90;;;;;;5134228;27;20195;-73
2023/02/27 08:17:14;;;;;;;7.77;3.83;;;1.60;99.90;;;;;;5134208;27;20184;-72
2023/02/27 08:19:40;;;;;;;8.07;3.50;;;1.50;99.90;;;;;;5115865;27;20165;-73
2023/02/27 08:22:06;;;;;;;7.47;3.60;;;1.40;99.90;;;;;;5134916;27;20172;-71
2023/02/27 08:24:31;;;;;;;6.50;3.67;;;1.60;99.90;;;;;;5132809;27;20165;-75
2023/02/27 08:26:57;;;;;;;8.13;4.00;;;1.60;99.90;;;;;;5115864;28;20185;-72
2023/02/27 08:29:23;;;;;;;10.43;3.50;;;1.70;99.90;;;;;;5134380;27;20202;-71
2023/02/27 08:31:49;;;;;;;7.07;3.63;;;1.80;99.90;;;;;;5134024;27;20157;-71
2023/02/27 08:34:15;;;;;;;6.20;3.20;;;1.80;99.90;;;;;;5115707;28;20587;-71
2023/02/27 08:36:41;;;;;;;14.60;4.10;;;1.70;99.90;;;;;;5134922;28;20169;-73
2023/02/27 08:39:08;;;;;;;6.10;3.53;;;1.80;99.90;;;;;;5134740;28;20226;-73
2023/02/27 08:41:34;;;;;;;7.73;3.73;;;2.00;99.90;;;;;;5134465;28;20149;-72
2023/02/27 08:44:00;;;;;;;7.80;3.87;;;2.00;99.90;;;;;;5133667;28;20173;-73
2023/02/27 08:46:25;;;;;;;10.10;3.93;;;2.20;99.90;;;;;;5134131;28;20226;-73
2023/02/27 08:48:54;;;;;;;5.93;3.60;;;2.30;99.90;;;;;;5133222;28;20148;-72
2023/02/27 08:51:19;;;;;;;4.93;3.93;;;2.40;99.90;;;;;;5133795;28;20203;-72
2023/02/27 08:53:45;;;;;;;9.47;3.57;;;2.50;99.90;;;;;;5133696;28;20169;-72
2023/02/27 08:56:11;;;;;;;5.80;3.43;;;2.60;99.90;;;;;;5133540;28;20197;-73
2023/02/27 08:58:36;;;;;;;7.10;3.80;;;2.70;99.90;;;;;;5133882;28;20563;-72
2023/02/27 09:01:02;;;;;;;12.53;4.43;;;2.80;99.90;;;;;;5115229;28;20181;-73
2023/02/27 09:03:28;;;;;;;6.83;3.70;;;3.00;99.90;;;;;;5135156;27;20165;-73
2023/02/27 09:05:54;;;;;;;5.00;3.40;;;3.10;99.90;;;;;;5137824;27;20159;-73
2023/02/27 09:08:22;;;;;;;7.67;3.73;;;3.10;99.90;;;;;;5137342;27;20150;-73
2023/02/27 09:10:47;;;;;;;9.07;3.40;;;3.20;99.90;;;;;;5137624;27;20150;-73
2023/02/27 09:13:13;;;;;;;8.43;3.73;;;3.10;99.90;;;;;;5137643;27;20157;-73
2023/02/27 09:15:40;;;;;;;12.97;3.50;;;3.20;99.90;;;;;;5138166;27;20512;-73
2023/02/27 09:18:06;;;;;;;5.60;3.20;;;3.20;99.90;;;;;;5137472;27;20641;-73
2023/02/27 09:20:34;;;;;;;7.27;3.10;;;3.20;99.90;;;;;;5119393;27;20165;-74
2023/02/27 09:23:02;;;;;;;9.77;3.60;;;3.30;99.90;;;;;;5137525;27;20651;-72
2023/02/27 09:25:29;;;;;;;8.97;3.50;;;3.30;99.90;;;;;;5137392;27;20228;-73
2023/02/27 09:27:55;;;;;;;8.83;3.43;;;3.30;99.90;;;;;;5118938;27;20173;-72
2023/02/27 09:30:21;;;;;;;6.50;3.57;;;3.40;99.90;;;;;;5118960;27;20164;-72
2023/02/27 09:32:47;;;;;;;7.53;3.97;;;3.60;99.90;;;;;;5137150;27;20226;-72
2023/02/27 09:35:16;;;;;;;6.70;3.67;;;3.70;99.90;;;;;;5137100;27;20261;-72
2023/02/27 09:37:42;;;;;;;8.40;3.23;;;3.80;99.90;;;;;;5137193;27;20606;-72
2023/02/27 09:40:30;;;;;;;6.80;3.37;;;3.80;99.90;;;;;;5137165;27;20165;-72
2023/02/27 09:43:01;;;;;;;6.70;3.17;;;3.90;99.90;;;;;;5136829;27;20218;-72
2023/02/27 09:45:29;;;;;;;8.90;3.67;;;3.90;99.90;;;;;;5137017;27;20172;-72
2023/02/27 09:48:15;;;;;;;5.90;3.13;;;4.00;99.90;;;;;;5118382;27;20173;-73
2023/02/27 09:50:47;;;;;;;6.87;3.27;;;4.10;99.90;;;;;;5137879;27;20158;-72
2023/02/27 09:53:41;;;;;;;5.73;3.03;;;4.20;99.90;;;;;;5136909;27;20192;-73
2023/02/27 09:56:31;;;;;;;5.27;2.60;;;4.20;99.90;;;;;;5137266;27;20228;-73
2023/02/27 09:59:15;;;;;;;6.97;3.57;;;4.30;99.90;;;;;;5136579;27;20206;-73
2023/02/27 10:01:51;;;;;;;5.93;2.50;;;4.40;99.90;;;;;;5136209;27;20181;-72
2023/02/27 10:04:42;;;;;;;6.33;2.93;;;4.30;99.90;;;;;;5136637;27;20653;-73
2023/02/27 10:07:23;;;;;;;5.33;2.40;;;4.40;99.90;;;;;;5136664;27;20161;-73
2023/02/27 10:10:01;;;;;;;6.77;2.60;;;4.60;99.90;;;;;;5118381;27;20223;-74
2023/02/27 10:12:26;;;;;;;6.83;2.07;;;4.50;99.90;;;;;;5136922;27;20158;-74
2023/02/27 10:15:22;;;;;;;5.10;2.20;;;4.40;99.90;;;;;;5117469;27;20223;-73
2023/02/27 10:18:05;;;;;;;4.97;2.40;;;4.40;99.90;;;;;;5118289;27;20534;-73
2023/02/27 10:20:42;;;;;;;5.13;2.23;;;4.50;99.90;;;;;;5137051;27;20143;-72
2023/02/27 10:23:20;;;;;;;4.67;2.13;;;4.70;99.90;;;;;;5137018;27;20206;-73
2023/02/27 10:25:49;;;;;;;4.00;2.00;;;4.90;99.90;;;;;;5136704;27;20649;-73
2023/02/27 10:28:17;;;;;;;5.87;2.03;;;5.00;99.90;;;;;;5136154;27;20501;-73
2023/02/27 10:31:14;;;;;;;2.90;1.60;;;5.00;99.90;;;;;;5136082;27;20167;-73
2023/02/27 10:33:43;;;;;;;3.53;1.70;;;4.90;99.90;;;;;;5116838;27;20178;-73
2023/02/27 10:36:11;;;;;;;3.80;1.77;;;5.00;99.90;;;;;;5117784;27;20244;-72
2023/02/27 10:38:44;;;;;;;2.83;1.60;;;5.10;99.90;;;;;;5136445;27;20168;-72
2023/02/27 10:41:15;;;;;;;3.67;2.00;;;5.20;99.90;;;;;;5117896;27;20173;-72
2023/02/27 10:43:41;;;;;;;6.20;1.80;;;5.20;99.90;;;;;;5135890;27;20222;-73
2023/02/27 10:46:16;;;;;;;3.00;1.83;;;5.30;99.90;;;;;;5136217;27;20177;-72
2023/02/27 10:48:42;;;;;;;5.47;1.90;;;5.30;99.90;;;;;;5136002;27;20237;-73
2023/02/27 10:51:21;;;;;;;5.53;1.80;;;5.40;99.90;;;;;;5136259;27;20171;-73
2023/02/27 10:53:47;;;;;;;3.67;1.53;;;5.50;99.90;;;;;;5136168;27;20620;-73
2023/02/27 10:56:22;;;;;;;5.83;1.90;;;5.70;99.90;;;;;;5135683;27;20266;-72
2023/02/27 10:59:02;;;;;;;5.60;1.60;;;5.80;99.90;;;;;;5117379;27;20534;-73
2023/02/27 11:01:41;;;;;;;2.20;1.47;;;6.10;99.90;;;;;;5116836;27;20205;-73
2023/02/27 11:04:07;;;;;;;5.20;1.67;;;6.30;99.90;;;;;;5135331;27;20167;-71
2023/02/27 11:06:33;;;;;;;3.57;1.77;;;6.50;99.90;;;;;;5117042;27;20591;-71
2023/02/27 11:09:24;;;;;;;4.67;1.70;;;6.70;99.90;;;;;;5135288;27;20149;-71
2023/02/27 11:11:53;;;;;;;1.90;1.37;;;7.00;99.90;;;;;;5135287;27;20153;-71
2023/02/27 11:14:23;;;;;;;3.63;1.57;;;7.20;99.00;;;;;;5134904;27;20165;-71
2023/02/27 11:16:52;;;;;;;3.07;1.70;;;7.40;98.70;;;;;;5135226;27;20183;-71
2023/02/27 11:19:32;;;;;;;3.87;1.77;;;7.40;98.20;;;;;;5116631;27;20161;-70
2023/02/27 11:22:19;;;;;;;5.30;2.17;;;7.70;97.90;;;;;;5116699;27;20165;-71
2023/02/27 11:24:45;;;;;;;4.43;1.57;;;7.40;97.40;;;;;;5135339;27;20164;-72
2023/02/27 11:27:27;;;;;;;5.93;2.03;;;7.50;97.80;;;;;;5116669;27;20268;-72
2023/02/27 11:29:59;;;;;;;3.53;1.67;;;7.70;97.80;;;;;;5134694;27;20178;-72
2023/02/27 11:32:40;;;;;;;5.00;1.63;;;7.90;97.00;;;;;;5135749;27;20153;-72
2023/02/27 11:35:22;;;;;;;4.20;1.70;;;8.10;96.90;;;;;;5116533;27;20181;-71
2023/02/27 11:37:51;;;;;;;3.20;1.67;;;8.30;96.50;;;;;;5134851;27;20512;-70
2023/02/27 11:40:19;;;;;;;7.93;2.03;;;8.50;95.50;;;;;;5134654;27;20146;-70
2023/02/27 11:42:53;;;;;;;4.90;1.50;;;8.40;95.90;;;;;;5116378;27;20203;-72
2023/02/27 11:45:19;;;;;;;5.13;1.77;;;8.60;96.10;;;;;;5116619;27;20252;-71
2023/02/27 11:47:48;;;;;;;5.30;1.67;;;8.80;95.70;;;;;;5134497;27;20181;-69
2023/02/27 11:50:41;;;;;;;2.80;1.40;;;9.40;94.90;;;;;;5134705;27;20168;-71
2023/02/27 11:53:36;;;;;;;5.53;2.10;;;9.70;93.50;;;;;;5134534;27;20170;-70
2023/02/27 11:56:07;;;;;;;3.03;1.97;;;9.30;93.70;;;;;;5134601;27;20204;-71
2023/02/27 11:58:41;;;;;;;2.93;1.40;;;9.30;94.40;;;;;;5115928;27;20173;-71
2023/02/27 12:01:32;;;;;;;2.73;1.57;;;9.70;94.10;;;;;;5134006;27;20177;-70
2023/02/27 12:04:27;;;;;;;4.40;1.53;;;9.40;94.40;;;;;;5104810;27;20181;-71
2023/02/27 12:07:09;;;;;;;2.77;1.80;;;9.80;94.60;;;;;;5096866;27;20246;-72
2023/02/27 12:09:38;;;;;;;3.97;1.53;;;10.60;93.10;;;;;;5134248;27;20202;-71
2023/02/27 12:12:15;;;;;;;2.67;1.50;;;10.60;92.70;;;;;;5133883;27;20166;-71
2023/02/27 12:15:00;;;;;;;5.17;1.50;;;10.80;92.90;;;;;;5134013;27;20181;-72
2023/02/27 12:17:39;;;;;;;7.70;1.60;;;10.50;92.50;;;;;;5133981;27;20642;-71
2023/02/27 12:20:20;;;;;;;2.63;1.17;;;10.90;92.50;;;;;;5133907;27;20673;-72
2023/02/27 12:22:48;;;;;;;3.93;1.30;;;10.90;91.70;;;;;;5133828;27;20212;-72
2023/02/27 12:25:35;;;;;;;3.33;1.70;;;10.60;91.40;;;;;;5115718;27;20208;-71
2023/02/27 12:28:21;;;;;;;4.47;1.40;;;10.40;91.60;;;;;;5133685;27;20154;-70
2023/02/27 12:31:07;;;;;;;1.60;1.37;;;10.50;90.90;;;;;;5133805;27;20159;-71
2023/02/27 12:34:01;;;;;;;1.87;1.00;;;10.80;90.50;;;;;;5115278;28;20173;-71
2023/02/27 12:36:26;;;;;;;5.20;1.20;;;11.60;89.60;;;;;;5133412;28;20207;-71
2023/02/27 12:38:52;;;;;;;1.87;0.80;;;12.60;86.70;;;;;;5133319;27;20152;-71
2023/02/27 12:41:35;;;;;;;2.27;1.03;;;13.80;84.50;;;;;;5133433;28;20632;-72
2023/02/27 12:44:40;;;;;;;2.97;1.20;;;13.80;82.90;;;;;;5115794;28;20177;-70
2023/02/27 12:47:07;;;;;;;3.73;1.10;;;13.40;80.60;;;;;;5133405;28;20233;-71
2023/02/27 12:49:38;;;;;;;2.17;1.10;;;13.00;81.60;;;;;;5133644;28;20160;-71
2023/02/27 12:52:28;;;;;;;5.80;1.17;;;13.10;81.70;;;;;;5133715;28;20605;-76
2023/02/27 12:55:17;;;;;;;2.53;1.20;;;13.30;80.10;;;;;;5133456;28;20232;-77
2023/02/27 12:57:55;;;;;;;2.77;1.10;;;13.80;79.20;;;;;;5116195;28;20162;-77
2023/02/27 13:00:27;;;;;;;1.70;0.90;;;13.70;78.60;;;;;;5134180;28;20165;-76
2023/02/27 13:03:11;;;;;;;4.20;1.20;;;13.60;77.20;;;;;;5134485;28;20241;-76
2023/02/27 13:05:52;;;;;;;2.80;1.10;;;13.40;78.30;;;;;;5134085;28;20169;-76
2023/02/27 13:08:42;;;;;;;5.00;1.23;;;13.20;78.60;;;;;;5133917;28;20248;-76
2023/02/27 13:11:23;;;;;;;8.53;1.40;;;14.00;78.20;;;;;;5134320;28;20146;-78
2023/02/27 13:14:04;;;;;;;3.53;1.00;;;13.80;78.00;;;;;;5134347;28;20169;-77
2023/02/27 13:16:29;;;;;;;5.53;1.53;;;13.60;78.60;;;;;;5134311;28;20172;-77
2023/02/27 13:19:08;;;;;;;19.37;2.27;;;13.80;77.00;;;;;;5134202;28;20157;-77
2023/02/27 13:21:56;;;;;;;1.73;1.17;;;13.00;77.50;;;;;;5134010;28;20171;-77
2023/02/27 13:24:30;;;;;;;3.20;0.97;;;12.90;77.80;;;;;;5133986;28;20627;-77
2023/02/27 13:27:05;;;;;;;2.87;0.90;;;12.60;78.00;;;;;;5134195;28;20153;-77